createdAt,value
2022-07-26T00:01:21.813Z,64.98
2022-07-26T00:03:50.996Z,65.08
2022-07-26T00:06:18.124Z,65.24
2022-07-26T00:08:47.282Z,65.27
2022-07-26T00:11:14.298Z,65.03
2022-07-26T00:13:41.103Z,65.10
2022-07-26T00:16:07.805Z,64.90
2022-07-26T00:18:34.498Z,65.32
2022-07-26T00:21:01.036Z,65.48
2022-07-26T00:23:27.839Z,65.71
2022-07-26T00:25:54.399Z,65.92
2022-07-26T00:28:21.050Z,66.29
2022-07-26T00:30:47.871Z,66.41
2022-07-26T00:33:14.513Z,66.81
2022-07-26T00:35:41.142Z,66.72
2022-07-26T00:38:07.919Z,67.04
2022-07-26T00:40:35.565Z,66.87
2022-07-26T00:43:02.294Z,67.04
2022-07-26T00:45:28.823Z,67.28
2022-07-26T00:47:55.496Z,67.37
2022-07-26T00:50:22.112Z,67.62
2022-07-26T00:52:50.403Z,68.14
2022-07-26T00:55:18.017Z,68.10
2022-07-26T00:57:45.636Z,68.11
2022-07-26T01:00:18.376Z,68.19
2022-07-26T01:02:45.724Z,68.34
2022-07-26T01:05:12.442Z,68.25
2022-07-26T01:07:39.554Z,68.53
2022-07-26T01:10:10.666Z,68.78
2022-07-26T01:12:37.176Z,69.18
2022-07-26T01:15:04.081Z,69.43
2022-07-26T01:17:30.601Z,69.53
2022-07-26T01:19:57.140Z,69.48
2022-07-26T01:22:24.124Z,69.68
2022-07-26T01:24:50.709Z,69.84
2022-07-26T01:27:17.529Z,70.04
2022-07-26T01:29:44.090Z,69.96
2022-07-26T01:32:10.613Z,69.70
2022-07-26T01:34:37.130Z,69.71
2022-07-26T01:37:04.080Z,69.68
2022-07-26T01:39:30.609Z,69.66
2022-07-26T01:41:57.346Z,69.47
2022-07-26T01:44:24.179Z,69.82
2022-07-26T01:46:50.694Z,69.79
2022-07-26T01:49:17.442Z,69.73
2022-07-26T01:51:44.316Z,69.81
2022-07-26T01:54:11.550Z,69.61
2022-07-26T01:56:38.458Z,69.60
2022-07-26T01:59:05.146Z,69.73
2022-07-26T02:01:39.209Z,69.70
2022-07-26T02:04:08.603Z,69.73
2022-07-26T02:06:35.544Z,69.75
2022-07-26T02:09:04.095Z,70.00
2022-07-26T02:11:33.023Z,69.99
2022-07-26T02:13:59.640Z,69.98
2022-07-26T02:16:26.844Z,70.24
2022-07-26T02:18:53.656Z,70.01
2022-07-26T02:21:20.135Z,69.89
2022-07-26T02:23:46.685Z,70.28
2022-07-26T02:26:13.237Z,70.24
2022-07-26T02:28:39.847Z,70.19
2022-07-26T02:31:06.440Z,70.07
2022-07-26T02:33:33.109Z,70.10
2022-07-26T02:35:59.641Z,70.07
2022-07-26T02:38:26.181Z,69.77
2022-07-26T02:40:52.941Z,69.49
2022-07-26T02:43:19.868Z,69.30
2022-07-26T02:46:01.511Z,68.87
2022-07-26T02:48:30.308Z,68.65
2022-07-26T02:50:56.935Z,68.46
2022-07-26T02:53:23.497Z,68.39
2022-07-26T02:55:50.010Z,68.22
2022-07-26T02:58:16.719Z,68.13
2022-07-26T03:00:43.302Z,68.07
2022-07-26T03:03:13.929Z,67.99
2022-07-26T03:05:40.814Z,67.79
2022-07-26T03:08:07.666Z,67.67
2022-07-26T03:10:34.165Z,67.59
2022-07-26T03:13:00.781Z,67.72
2022-07-26T03:15:27.505Z,67.64
2022-07-26T03:17:55.223Z,67.74
2022-07-26T03:20:21.773Z,67.92
2022-07-26T03:22:48.536Z,68.13
2022-07-26T03:25:15.076Z,68.44
2022-07-26T03:27:41.706Z,68.55
2022-07-26T03:30:08.972Z,68.77
2022-07-26T03:32:35.665Z,68.64
2022-07-26T03:35:02.145Z,68.81
2022-07-26T03:37:44.735Z,68.92
2022-07-26T03:40:14.618Z,69.09
2022-07-26T03:42:41.194Z,69.13
2022-07-26T03:45:09.342Z,69.03
2022-07-26T03:47:37.188Z,69.08
2022-07-26T03:50:05.260Z,69.10
2022-07-26T03:52:31.953Z,69.15
2022-07-26T03:54:58.836Z,69.21
2022-07-26T03:57:28.407Z,69.59
2022-07-26T03:59:55.109Z,69.21
2022-07-26T04:02:21.821Z,69.69
2022-07-26T04:04:48.441Z,69.61
2022-07-26T04:07:16.001Z,69.93
2022-07-26T04:09:42.959Z,70.13
2022-07-26T04:12:09.683Z,70.76
2022-07-26T04:14:36.242Z,70.89
2022-07-26T04:17:02.797Z,70.70
2022-07-26T04:19:29.613Z,71.12
2022-07-26T04:21:56.182Z,71.24
2022-07-26T04:24:25.299Z,71.52
2022-07-26T04:26:52.457Z,71.88
2022-07-26T04:29:18.961Z,71.85
2022-07-26T04:31:45.584Z,71.69
2022-07-26T04:34:12.157Z,71.73
2022-07-26T04:36:39.140Z,71.64
2022-07-26T04:39:05.711Z,71.90
2022-07-26T04:41:32.269Z,71.98
2022-07-26T04:43:58.882Z,71.87
2022-07-26T04:46:25.679Z,71.95
2022-07-26T04:48:52.357Z,72.19
2022-07-26T04:51:18.923Z,72.03
2022-07-26T04:53:45.428Z,72.00
2022-07-26T04:56:12.166Z,72.13
2022-07-26T04:58:38.667Z,72.19
2022-07-26T05:01:12.433Z,72.33
2022-07-26T05:03:39.840Z,72.17
2022-07-26T05:06:06.894Z,72.31
2022-07-26T05:08:33.445Z,72.53
2022-07-26T05:11:00.012Z,72.14
2022-07-26T05:13:30.216Z,71.83
2022-07-26T05:15:58.366Z,71.60
2022-07-26T05:18:25.341Z,71.41
2022-07-26T05:20:52.341Z,71.19
2022-07-26T05:23:20.459Z,70.92
2022-07-26T05:25:47.382Z,70.65
2022-07-26T05:28:13.906Z,70.41
2022-07-26T05:30:40.450Z,70.21
2022-07-26T05:33:07.003Z,70.04
2022-07-26T05:35:33.520Z,69.95
2022-07-26T05:38:00.095Z,69.94
2022-07-26T05:40:26.606Z,69.68
2022-07-26T05:42:53.168Z,70.09
2022-07-26T05:45:19.969Z,70.13
2022-07-26T05:47:49.975Z,70.24
2022-07-26T05:50:16.779Z,70.52
2022-07-26T05:52:43.492Z,70.75
2022-07-26T05:55:10.165Z,70.37
2022-07-26T05:57:36.767Z,70.06
2022-07-26T06:00:04.689Z,70.00
2022-07-26T06:02:38.569Z,69.65
2022-07-26T06:05:05.820Z,69.50
2022-07-26T06:07:32.525Z,69.36
2022-07-26T06:09:59.970Z,69.02
2022-07-26T06:12:26.689Z,68.48
2022-07-26T06:14:53.154Z,68.54
2022-07-26T06:17:19.735Z,68.49
2022-07-26T06:19:47.872Z,68.06
2022-07-26T06:22:15.115Z,68.15
2022-07-26T06:24:41.637Z,68.09
2022-07-26T06:27:08.411Z,68.20
2022-07-26T06:29:34.929Z,68.36
2022-07-26T06:32:01.639Z,68.42
2022-07-26T06:34:28.714Z,68.12
2022-07-26T06:36:55.349Z,67.87
2022-07-26T06:39:21.854Z,67.82
2022-07-26T06:41:48.503Z,67.59
2022-07-26T06:44:22.621Z,67.16
2022-07-26T06:46:49.773Z,67.28
2022-07-26T06:49:20.549Z,67.20
2022-07-26T06:51:48.881Z,67.44
2022-07-26T06:54:15.723Z,67.17
2022-07-26T06:56:42.326Z,67.60
2022-07-26T06:59:09.565Z,67.87
2022-07-26T07:01:57.746Z,68.59
2022-07-26T07:04:22.897Z,68.96
2022-07-26T07:06:49.593Z,68.91
2022-07-26T07:09:16.188Z,69.43
2022-07-26T07:11:44.378Z,68.93
2022-07-26T07:14:11.956Z,68.57
2022-07-26T07:16:38.826Z,68.53
2022-07-26T07:19:05.484Z,68.72
2022-07-26T07:21:33.746Z,68.84
2022-07-26T07:24:00.785Z,67.91
2022-07-26T07:26:29.313Z,67.17
2022-07-26T07:28:55.958Z,66.71
2022-07-26T07:31:28.732Z,66.56
2022-07-26T07:33:57.459Z,65.99
2022-07-26T07:36:24.699Z,66.31
2022-07-26T07:38:51.381Z,66.51
2022-07-26T07:41:18.945Z,67.02
2022-07-26T07:43:45.563Z,67.21
2022-07-26T07:46:12.839Z,67.07
2022-07-26T07:48:47.417Z,67.13
2022-07-26T07:51:14.683Z,67.15
2022-07-26T07:53:41.529Z,66.38
2022-07-26T07:56:08.209Z,65.75
2022-07-26T07:58:34.824Z,65.13
2022-07-26T08:01:01.523Z,65.09
2022-07-26T08:03:38.955Z,65.06
2022-07-26T08:06:08.337Z,63.52
2022-07-26T08:08:37.360Z,63.25
2022-07-26T08:11:05.230Z,62.96
2022-07-26T08:13:34.671Z,61.67
2022-07-26T08:16:09.573Z,61.60
2022-07-26T08:18:36.461Z,61.13
2022-07-26T08:21:08.536Z,61.71
2022-07-26T08:23:35.255Z,62.07
2022-07-26T08:26:06.277Z,60.69
2022-07-26T08:28:58.389Z,60.09
2022-07-26T08:31:21.147Z,59.47
2022-07-26T08:33:48.651Z,59.24
2022-07-26T08:36:17.122Z,59.43
2022-07-26T08:38:44.621Z,59.18
2022-07-26T08:41:14.208Z,58.80
2022-07-26T08:43:48.887Z,57.65
2022-07-26T08:46:24.677Z,57.44
2022-07-26T08:48:52.741Z,57.83
2022-07-26T08:51:22.150Z,58.32
2022-07-26T08:53:49.779Z,59.07
2022-07-26T08:56:16.278Z,59.39
2022-07-26T08:58:43.911Z,59.73
2022-07-26T09:01:12.950Z,60.41
2022-07-26T09:03:40.604Z,59.07
2022-07-26T09:06:21.750Z,59.17
2022-07-26T09:08:51.298Z,58.67
2022-07-26T09:11:24.013Z,58.48
2022-07-26T09:13:59.082Z,58.11
2022-07-26T09:16:26.755Z,57.65
2022-07-26T09:18:53.895Z,57.60
2022-07-26T09:21:27.466Z,57.80
2022-07-26T09:23:55.129Z,57.76
2022-07-26T09:26:23.682Z,63.25
2022-07-26T09:29:03.583Z,69.15
2022-07-26T09:31:30.323Z,74.54
2022-07-26T09:33:58.929Z,79.73
2022-07-26T09:36:27.614Z,82.84
2022-07-26T09:38:59.116Z,84.82
2022-07-26T09:41:30.219Z,89.33
2022-07-26T09:44:00.456Z,92.40
2022-07-26T09:46:29.743Z,98.83
2022-07-26T09:49:13.448Z,100.00
2022-07-26T09:51:42.232Z,100.00
2022-07-26T09:54:11.046Z,100.00
2022-07-26T09:56:49.895Z,100.00
2022-07-26T09:59:18.942Z,100.00
2022-07-26T10:01:45.825Z,100.00
2022-07-26T10:04:13.991Z,100.00
2022-07-26T10:06:42.285Z,100.00
2022-07-26T10:09:09.737Z,100.00
2022-07-26T10:12:06.916Z,100.00
2022-07-26T10:14:33.476Z,100.00
2022-07-26T10:17:01.142Z,100.00
2022-07-26T10:19:45.256Z,100.00
2022-07-26T10:22:31.155Z,100.00
2022-07-26T10:25:20.009Z,100.00
2022-07-26T10:27:55.078Z,100.00
2022-07-26T10:30:23.246Z,100.00
2022-07-26T10:33:13.495Z,100.00
2022-07-26T10:35:44.826Z,100.00
2022-07-26T10:38:31.648Z,100.00
2022-07-26T10:41:09.040Z,100.00
2022-07-26T10:43:41.050Z,100.00
2022-07-26T10:46:20.551Z,100.00
2022-07-26T10:49:03.626Z,100.00
2022-07-26T10:51:39.426Z,98.74
2022-07-26T10:54:09.415Z,96.56
2022-07-26T10:56:36.629Z,95.29
2022-07-26T10:59:05.414Z,94.83
2022-07-26T11:01:40.838Z,90.54
2022-07-26T11:04:27.750Z,88.98
2022-07-26T11:07:00.413Z,90.38
2022-07-26T11:09:34.514Z,89.62
2022-07-26T11:12:20.070Z,87.86
2022-07-26T11:14:48.542Z,84.57
2022-07-26T11:17:25.154Z,82.54
2022-07-26T11:19:52.160Z,79.24
2022-07-26T11:22:18.924Z,76.59
2022-07-26T11:24:45.652Z,76.32
2022-07-26T11:27:12.514Z,75.60
2022-07-26T11:29:40.308Z,73.47
2022-07-26T11:32:17.862Z,72.94
2022-07-26T11:34:45.846Z,73.65
2022-07-26T11:37:13.466Z,72.51
2022-07-26T11:39:40.073Z,73.47
2022-07-26T11:42:13.239Z,70.71
2022-07-26T11:44:44.247Z,70.66
2022-07-26T11:47:20.015Z,68.89
2022-07-26T11:50:00.893Z,69.82
2022-07-26T11:52:33.676Z,69.64
2022-07-26T11:55:00.263Z,70.08
2022-07-26T11:57:32.174Z,69.45
2022-07-26T12:00:00.409Z,67.59
2022-07-26T12:02:28.533Z,66.45
2022-07-26T12:05:14.186Z,66.72
2022-07-26T12:07:56.080Z,66.95
2022-07-26T12:10:23.158Z,66.71
2022-07-26T12:12:50.210Z,66.29
2022-07-26T12:15:16.854Z,64.31
2022-07-26T12:17:59.680Z,64.33
2022-07-26T12:20:28.109Z,65.08
2022-07-26T12:23:04.982Z,62.90
2022-07-26T12:25:32.020Z,62.92
2022-07-26T12:27:58.561Z,62.65
2022-07-26T12:30:30.748Z,61.88
2022-07-26T12:33:02.140Z,59.69
2022-07-26T12:35:35.788Z,58.92
2022-07-26T12:38:03.466Z,59.26
2022-07-26T12:40:39.540Z,57.00
2022-07-26T12:43:06.076Z,55.66
2022-07-26T12:45:36.238Z,55.33
2022-07-26T12:48:07.054Z,55.08
2022-07-26T12:50:33.854Z,53.99
2022-07-26T12:53:08.772Z,53.78
2022-07-26T12:55:36.128Z,53.52
2022-07-26T12:58:02.881Z,53.41
2022-07-26T13:00:29.816Z,53.51
2022-07-26T13:02:57.642Z,53.27
2022-07-26T13:05:24.965Z,53.22
2022-07-26T13:07:52.139Z,53.50
2022-07-26T13:10:35.592Z,54.29
2022-07-26T13:13:03.713Z,53.65
2022-07-26T13:15:36.068Z,53.65
2022-07-26T13:18:08.768Z,53.21
2022-07-26T13:20:39.328Z,53.47
2022-07-26T13:23:11.588Z,52.48
2022-07-26T13:25:40.374Z,51.96
2022-07-26T13:28:08.150Z,51.79
2022-07-26T13:30:37.473Z,51.62
2022-07-26T13:33:04.729Z,52.14
2022-07-26T13:35:31.227Z,50.65
2022-07-26T13:37:57.816Z,50.93
2022-07-26T13:40:30.683Z,50.81
2022-07-26T13:42:57.973Z,51.53
2022-07-26T13:45:24.485Z,51.38
2022-07-26T13:47:55.921Z,51.54
2022-07-26T13:50:22.748Z,50.91
2022-07-26T13:52:49.334Z,51.42
2022-07-26T13:55:16.166Z,52.77
2022-07-26T13:57:55.915Z,52.85
2022-07-26T14:00:23.149Z,53.62
2022-07-26T14:02:49.931Z,54.21
2022-07-26T14:05:16.638Z,53.73
2022-07-26T14:07:43.570Z,54.00
2022-07-26T14:10:10.494Z,54.18
2022-07-26T14:12:38.154Z,53.56
2022-07-26T14:15:11.238Z,53.74
2022-07-26T14:17:39.739Z,53.40
2022-07-26T14:20:07.058Z,53.29
2022-07-26T14:22:33.596Z,54.00
2022-07-26T14:25:00.299Z,53.58
2022-07-26T14:27:26.968Z,53.45
2022-07-26T14:29:53.586Z,53.19
2022-07-26T14:32:22.105Z,53.27
2022-07-26T14:34:49.909Z,53.62
2022-07-26T14:37:44.474Z,53.32
2022-07-26T14:40:05.771Z,53.73
2022-07-26T14:42:32.512Z,53.74
2022-07-26T14:44:59.201Z,54.04
2022-07-26T14:47:25.803Z,54.24
2022-07-26T14:49:52.441Z,52.79
2022-07-26T14:52:19.171Z,53.74
2022-07-26T14:54:45.729Z,53.48
2022-07-26T14:57:12.292Z,53.75
2022-07-26T14:59:38.826Z,53.56
2022-07-26T15:02:05.970Z,53.13
2022-07-26T15:04:33.310Z,51.88
2022-07-26T15:07:00.129Z,50.76
2022-07-26T15:09:26.621Z,51.68
2022-07-26T15:11:53.450Z,50.48
2022-07-26T15:14:19.991Z,50.50
2022-07-26T15:16:46.651Z,50.43
2022-07-26T15:19:13.502Z,49.86
2022-07-26T15:21:40.174Z,49.60
2022-07-26T15:24:07.550Z,47.89
2022-07-26T15:26:35.079Z,45.30
2022-07-26T15:29:01.617Z,43.24
2022-07-26T15:31:36.620Z,44.25
2022-07-26T15:34:07.628Z,44.61
2022-07-26T15:36:34.644Z,45.26
2022-07-26T15:39:14.665Z,46.74
2022-07-26T15:41:43.542Z,47.37
2022-07-26T15:44:11.579Z,46.52
2022-07-26T15:46:39.842Z,46.88
2022-07-26T15:49:07.611Z,47.49
2022-07-26T15:51:34.527Z,47.56
2022-07-26T15:54:03.031Z,47.90
2022-07-26T15:56:29.735Z,47.39
2022-07-26T15:58:56.440Z,47.28
2022-07-26T16:01:23.081Z,47.75
2022-07-26T16:03:50.229Z,48.68
2022-07-26T16:06:17.418Z,48.80
2022-07-26T16:09:13.535Z,49.33
2022-07-26T16:11:31.365Z,50.16
2022-07-26T16:14:01.407Z,49.93
2022-07-26T16:16:30.042Z,50.18
2022-07-26T16:18:56.851Z,49.73
2022-07-26T16:21:24.052Z,49.53
2022-07-26T16:23:51.128Z,49.38
2022-07-26T16:26:18.326Z,48.79
2022-07-26T16:28:45.236Z,47.99
2022-07-26T16:31:12.210Z,48.18
2022-07-26T16:33:41.970Z,48.44
2022-07-26T16:36:14.048Z,48.39
2022-07-26T16:38:40.586Z,48.70
2022-07-26T16:41:07.260Z,48.67
2022-07-26T16:43:34.590Z,48.65
2022-07-26T16:46:01.831Z,47.49
2022-07-26T16:48:28.497Z,47.86
2022-07-26T16:50:55.096Z,47.31
2022-07-26T16:53:21.597Z,47.78
2022-07-26T16:55:51.286Z,48.00
2022-07-26T16:58:18.634Z,48.81
2022-07-26T17:00:46.126Z,48.88
2022-07-26T17:03:15.725Z,49.13
2022-07-26T17:05:43.746Z,49.09
2022-07-26T17:08:10.493Z,49.32
2022-07-26T17:10:37.132Z,48.98
2022-07-26T17:13:04.093Z,49.67
2022-07-26T17:15:30.571Z,49.83
2022-07-26T17:17:57.178Z,50.00
2022-07-26T17:20:23.722Z,50.04
2022-07-26T17:22:50.297Z,50.43
2022-07-26T17:25:16.995Z,50.15
2022-07-26T17:27:43.880Z,50.04
2022-07-26T17:30:11.384Z,50.19
2022-07-26T17:32:38.169Z,50.18
2022-07-26T17:35:06.425Z,50.76
2022-07-26T17:37:35.127Z,50.64
2022-07-26T17:40:04.973Z,50.64
2022-07-26T17:42:35.090Z,51.53
2022-07-26T17:45:01.812Z,51.17
2022-07-26T17:47:30.483Z,51.29
2022-07-26T17:52:52.661Z,52.37
2022-07-26T17:55:20.399Z,52.04
2022-07-26T17:57:48.308Z,52.49
2022-07-26T18:00:18.954Z,52.36
2022-07-26T18:02:45.871Z,52.21
2022-07-26T18:05:12.593Z,52.80
2022-07-26T18:07:39.814Z,53.04
2022-07-26T18:10:07.660Z,52.60
2022-07-26T18:12:34.279Z,52.39
2022-07-26T18:15:00.808Z,52.73
2022-07-26T18:17:27.466Z,52.80
2022-07-26T18:19:54.020Z,52.73
2022-07-26T18:22:20.643Z,52.92
2022-07-26T18:24:47.138Z,52.91
2022-07-26T18:27:13.675Z,53.12
2022-07-26T18:29:40.234Z,53.04
2022-07-26T18:32:06.798Z,52.56
2022-07-26T18:34:34.077Z,52.08
2022-07-26T18:37:00.757Z,51.43
2022-07-26T18:39:32.572Z,51.41
2022-07-26T18:42:00.208Z,51.02
2022-07-26T18:44:26.734Z,50.94
2022-07-26T18:46:53.426Z,51.34
2022-07-26T18:49:21.175Z,50.73
2022-07-26T18:51:49.021Z,51.14
2022-07-26T18:54:16.823Z,51.42
2022-07-26T18:56:43.441Z,51.63
2022-07-26T18:59:10.337Z,51.73
2022-07-26T19:01:37.483Z,52.01
2022-07-26T19:04:07.072Z,52.24
2022-07-26T19:06:34.916Z,52.62
2022-07-26T19:09:01.562Z,52.79
2022-07-26T19:11:29.609Z,52.70
2022-07-26T19:13:56.196Z,52.78
2022-07-26T19:16:22.906Z,53.04
2022-07-26T19:18:52.718Z,52.97
2022-07-26T19:21:22.042Z,53.44
2022-07-26T19:23:48.619Z,53.21
2022-07-26T19:26:15.087Z,53.69
2022-07-26T19:28:41.703Z,53.75
2022-07-26T19:31:08.292Z,53.78
2022-07-26T19:33:34.844Z,53.82
2022-07-26T19:36:01.510Z,53.99
2022-07-26T19:38:28.105Z,53.95
2022-07-26T19:40:55.218Z,54.16
2022-07-26T19:43:22.634Z,54.10
2022-07-26T19:45:49.492Z,54.17
2022-07-26T19:48:16.087Z,54.16
2022-07-26T19:50:42.587Z,54.27
2022-07-26T19:53:09.076Z,54.22
2022-07-26T19:55:38.486Z,54.30
2022-07-26T19:58:05.193Z,54.12
2022-07-26T20:00:31.677Z,54.27
2022-07-26T20:02:58.348Z,54.59
2022-07-26T20:05:24.925Z,54.55
2022-07-26T20:07:52.953Z,54.71
2022-07-26T20:10:19.701Z,54.72
2022-07-26T20:12:46.231Z,54.83
2022-07-26T20:15:14.355Z,54.71
2022-07-26T20:17:41.501Z,54.64
2022-07-26T20:20:09.704Z,54.49
2022-07-26T20:22:36.694Z,54.71
2022-07-26T20:25:03.510Z,54.76
2022-07-26T20:27:30.196Z,54.71
2022-07-26T20:30:00.874Z,54.82
2022-07-26T20:32:27.931Z,54.74
2022-07-26T20:34:54.692Z,54.97
2022-07-26T20:37:21.327Z,54.97
2022-07-26T20:39:47.853Z,55.17
2022-07-26T20:42:21.227Z,55.01
2022-07-26T20:44:48.244Z,55.12
2022-07-26T20:47:15.229Z,55.37
2022-07-26T20:49:41.761Z,55.60
2022-07-26T20:52:08.434Z,55.79
2022-07-26T20:54:35.129Z,55.68
2022-07-26T20:57:04.100Z,55.85
2022-07-26T20:59:32.308Z,55.76
2022-07-26T21:01:59.057Z,55.65
2022-07-26T21:04:25.624Z,55.63
2022-07-26T21:06:52.253Z,55.73
2022-07-26T21:09:19.843Z,55.42
2022-07-26T21:11:46.758Z,55.95
2022-07-26T21:14:13.397Z,56.00
2022-07-26T21:16:40.143Z,56.07
2022-07-26T21:19:06.938Z,56.48
2022-07-26T21:21:34.245Z,56.28
2022-07-26T21:24:00.904Z,56.42
2022-07-26T21:26:27.481Z,56.71
2022-07-26T21:28:54.091Z,57.20
2022-07-26T21:31:21.128Z,56.99
2022-07-26T21:33:47.684Z,56.95
2022-07-26T21:36:14.358Z,56.88
2022-07-26T21:38:41.915Z,57.20
2022-07-26T21:41:08.509Z,57.42
2022-07-26T21:43:35.748Z,56.98
2022-07-26T21:46:02.984Z,57.43
2022-07-26T21:48:30.197Z,57.54
2022-07-26T21:50:56.809Z,57.41
2022-07-26T21:53:23.321Z,57.40
2022-07-26T21:55:49.800Z,57.66
2022-07-26T21:58:17.097Z,57.91
2022-07-26T22:00:43.894Z,57.63
2022-07-26T22:03:11.744Z,57.78
2022-07-26T22:05:38.270Z,57.93
2022-07-26T22:08:06.868Z,57.98
2022-07-26T22:10:35.186Z,58.41
2022-07-26T22:13:10.672Z,58.25
2022-07-26T22:15:37.327Z,57.77
2022-07-26T22:18:04.102Z,57.88
2022-07-26T22:20:32.367Z,57.91
2022-07-26T22:23:03.402Z,58.28
2022-07-26T22:25:31.849Z,58.04
2022-07-26T22:27:59.604Z,58.56
2022-07-26T22:30:28.443Z,58.17
2022-07-26T22:32:56.553Z,58.55
2022-07-26T22:35:24.929Z,58.72
2022-07-26T22:37:53.540Z,58.70
2022-07-26T22:40:21.707Z,58.85
2022-07-26T22:42:48.517Z,58.85
2022-07-26T22:45:15.868Z,58.67
2022-07-26T22:47:46.951Z,59.00
2022-07-26T22:50:23.409Z,59.10
2022-07-26T22:52:52.199Z,58.98
2022-07-26T22:55:18.887Z,59.29
2022-07-26T22:57:45.679Z,59.23
2022-07-26T23:00:14.949Z,59.70
2022-07-26T23:02:41.955Z,59.31
2022-07-26T23:05:09.324Z,60.00
2022-07-26T23:07:37.080Z,60.26
2022-07-26T23:10:05.974Z,60.33
2022-07-26T23:12:32.556Z,60.74
2022-07-26T23:14:59.114Z,61.32
2022-07-26T23:17:25.640Z,61.13
2022-07-26T23:19:52.176Z,61.23
2022-07-26T23:22:18.653Z,61.35
2022-07-26T23:24:45.137Z,61.72
2022-07-26T23:27:14.339Z,62.02
2022-07-26T23:29:44.652Z,62.69
2022-07-26T23:32:12.601Z,62.78
2022-07-26T23:34:39.673Z,63.07
2022-07-26T23:37:06.141Z,62.94
2022-07-26T23:39:32.734Z,63.48
2022-07-26T23:42:02.911Z,63.98
2022-07-26T23:44:30.603Z,63.79
2022-07-26T23:46:58.579Z,64.07
2022-07-26T23:49:25.453Z,64.31
2022-07-26T23:51:52.329Z,64.87
2022-07-26T23:54:19.054Z,64.87
2022-07-26T23:56:45.806Z,65.50
2022-07-26T23:59:13.704Z,65.74
